Time;durP1;ratioP1;P1;durP2;ratioP2;P2;SDS_P1;SDS_P2;PMS_P1;PMS_P2;Temp;Humidity;BMP_temperature;BMP_pressure;BME280_temperature;BME280_humidity;BME280_pressure;Samples;Min_cycle;Max_cycle;Signal;HPM_P1;HPM_P2
2022/10/30 05:36:46;;;;;;;;;;;;;;;18.85;78.09;101122.07;2407993;72;21791;-76
2022/10/30 05:39:47;;;;;;;;;;;;;;;18.82;77.32;101119.23;2341285;74;50197;-74
2022/10/30 05:42:49;;;;;;;;;;;;;;;18.83;76.04;101114.22;2274562;76;49423;-74
2022/10/30 05:45:51;;;;;;;;;;;;;;;18.84;75.21;101108.34;2338484;75;50002;-74
2022/10/30 05:48:52;;;;;;;;;;;;;;;18.86;75.30;101107.16;2339179;75;50681;-74
2022/10/30 05:51:54;;;;;;;;;;;;;;;18.89;75.10;101100.11;2339209;75;51258;-76
2022/10/30 05:54:55;;;;;;;;;;;;;;;18.95;75.05;101151.38;2302209;75;50810;-75
2022/10/30 05:58:01;;;;;;;;;;;;;;;18.97;75.00;101154.72;2315291;76;51298;-76
2022/10/30 06:01:06;;;;;;;;;;;;;;;19.01;74.94;101126.53;2337643;76;50613;-75
2022/10/30 06:04:08;;;;;;;;;;;;;;;19.04;74.84;101071.23;2337444;76;50304;-77
2022/10/30 06:07:09;;;;;;;;;;;;;;;19.06;74.72;101099.55;2283264;75;51057;-76
2022/10/30 06:10:11;;;;;;;;;;;;;;;19.08;74.48;101138.23;2298882;76;52305;-76
2022/10/30 06:13:13;;;;;;;;;;;;;;;19.10;74.58;101098.67;2298003;76;50161;-76
2022/10/30 06:16:14;;;;;;;;;;;;;;;19.13;74.50;101109.05;2297993;76;51482;-77
2022/10/30 06:19:16;;;;;;;;;;;;;;;19.13;74.39;101114.41;2298734;76;49500;-77
2022/10/30 06:22:17;;;;;;;;;;;;;;;19.14;74.40;101112.08;2311141;75;50293;-77
2022/10/30 06:25:19;;;;;;;;;;;;;;;19.14;74.25;101112.08;2339793;75;50260;-77
2022/10/30 06:28:21;;;;;;;;;;;;;;;19.17;74.18;101113.06;2353984;75;50610;-76
2022/10/30 06:31:22;;;;;;;;;;;;;;;19.16;74.12;101110.03;2374574;75;51268;-75
2022/10/30 06:34:24;;;;;;;;;;;;;;;19.16;74.06;101107.34;2373109;75;51477;-76
2022/10/30 06:37:27;;;;;;;;;;;;;;;19.18;74.05;101104.50;2348144;75;50628;-76
2022/10/30 06:40:28;;;;;;;;;;;;;;;19.14;73.86;101103.52;2329833;75;50260;-76
2022/10/30 06:43:30;;;;;;;;;;;;;;;19.16;73.93;101099.30;2294439;76;50054;-77
2022/10/30 06:46:32;;;;;;;;;;;;;;;19.21;73.85;101104.97;2318507;76;51544;-76
2022/10/30 06:49:33;;;;;;;;;;;;;;;19.21;73.91;101098.27;2293666;76;51541;-76
2022/10/30 06:52:35;;;;;;;;;;;;;;;19.21;73.86;101100.95;2318101;76;51384;-76
2022/10/30 06:55:36;;;;;;;;;;;;;;;19.21;73.79;101099.61;2293295;76;51177;-77
2022/10/30 06:58:38;;;;;;;;;;;;;;;19.22;73.95;101106.66;2293970;76;50269;-74
2022/10/30 07:01:39;;;;;;;;;;;;;;;19.21;73.93;101115.70;2318231;76;50283;-75
2022/10/30 07:04:41;;;;;;;;;;;;;;;19.22;74.01;101117.91;2317797;76;50635;-75
2022/10/30 07:07:43;;;;;;;;;;;;;;;19.25;73.90;101122.91;2290306;75;49501;-75
2022/10/30 07:10:44;;;;;;;;;;;;;;;19.31;73.89;101130.25;2326888;75;50637;-76
2022/10/30 07:13:46;;;;;;;;;;;;;;;19.33;73.98;101127.72;2326171;76;51460;-77
2022/10/30 07:16:47;;;;;;;;;;;;;;;19.32;74.19;101130.09;2339319;75;51388;-76
2022/10/30 07:19:49;;;;;;;;;;;;;;;19.32;74.12;101131.94;2325929;75;50893;-76
2022/10/30 07:22:51;;;;;;;;;;;;;;;19.35;74.34;101142.31;2352530;75;51398;-76
2022/10/30 07:25:52;;;;;;;;;;;;;;;19.39;75.04;101144.12;2357737;75;50287;-76
2022/10/30 07:28:54;;;;;;;;;;;;;;;19.44;74.67;101155.17;2357853;75;50054;-76
2022/10/30 07:31:55;;;;;;;;;;;;;;;19.44;74.61;101143.09;2323575;75;51202;-76
2022/10/30 07:34:57;;;;;;;;;;;;;;;19.47;74.68;101154.33;2308964;76;50672;-76
2022/10/30 07:38:02;;;;;;;;;;;;;;;19.45;74.63;101163.57;2326451;75;51380;-75
2022/10/30 07:41:04;;;;;;;;;;;;;;;19.39;74.56;101161.06;2298588;76;51515;-79
2022/10/30 07:44:06;;;;;;;;;;;;;;;19.42;74.50;101167.92;2273505;76;50009;-79
2022/10/30 07:47:07;;;;;;;;;;;;;;;19.45;74.53;101162.23;2298851;76;51490;-77
2022/10/30 07:50:09;;;;;;;;;;;;;;;19.48;74.44;101161.87;2326739;76;51492;-78
2022/10/30 07:53:11;;;;;;;;;;;;;;;19.48;74.16;101153.81;2326537;76;51442;-79
2022/10/30 07:56:12;;;;;;;;;;;;;;;19.47;74.13;101154.33;2299462;76;51700;-78
2022/10/30 07:59:14;;;;;;;;;;;;;;;19.44;74.33;101168.59;2298584;76;51433;-78
2022/10/30 08:02:15;;;;;;;;;;;;;;;19.44;74.78;101156.52;2298069;76;51355;-78
2022/10/30 08:05:17;;;;;;;;;;;;;;;19.43;74.54;101155.69;2326315;76;51454;-77
2022/10/30 08:08:19;;;;;;;;;;;;;;;19.41;74.70;101156.87;2312413;75;52854;-77
2022/10/30 08:11:20;;;;;;;;;;;;;;;19.40;74.69;101161.92;2312215;75;50633;-77
2022/10/30 08:14:22;;;;;;;;;;;;;;;19.40;74.68;101169.97;2317915;76;51468;-77
2022/10/30 08:17:23;;;;;;;;;;;;;;;19.39;74.56;101166.42;2293813;76;51424;-77
2022/10/30 08:20:25;;;;;;;;;;;;;;;19.36;74.41;101154.20;2293870;76;49480;-77
2022/10/30 08:23:26;;;;;;;;;;;;;;;19.38;74.37;101177.35;2317880;76;51367;-77
2022/10/30 08:26:28;;;;;;;;;;;;;;;19.35;74.33;101143.14;2293956;76;50723;-77
2022/10/30 08:29:30;;;;;;;;;;;;;;;19.36;74.35;101178.34;2318058;76;50216;-78
2022/10/30 08:32:31;;;;;;;;;;;;;;;19.37;74.25;101176.52;2293458;76;50903;-78
2022/10/30 08:35:33;;;;;;;;;;;;;;;19.38;74.29;101162.59;2313885;76;50309;-78
2022/10/30 08:38:34;;;;;;;;;;;;;;;19.37;74.25;101171.16;2294665;76;50138;-78
2022/10/30 08:41:36;;;;;;;;;;;;;;;19.36;74.21;101168.95;2294678;76;49278;-78
2022/10/30 08:44:38;;;;;;;;;;;;;;;19.35;74.08;101172.66;2333459;76;50666;-78
2022/10/30 08:47:39;;;;;;;;;;;;;;;19.35;74.03;101159.24;2299610;76;51560;-77
2022/10/30 08:50:41;;;;;;;;;;;;;;;19.36;74.05;101166.27;2334202;76;51466;-78
2022/10/30 08:53:42;;;;;;;;;;;;;;;19.35;74.05;101166.47;2333370;76;51450;-77
2022/10/30 08:56:44;;;;;;;;;;;;;;;19.33;73.98;101155.89;2333319;76;52220;-77
2022/10/30 08:59:45;;;;;;;;;;;;;;;19.35;73.97;101163.27;2299452;76;50187;-77
2022/10/30 09:02:47;;;;;;;;;;;;;;;19.35;73.91;101169.98;2299627;76;50347;-77
2022/10/30 09:05:49;;;;;;;;;;;;;;;19.35;73.88;101167.30;2333103;76;50269;-77
2022/10/30 09:08:50;;;;;;;;;;;;;;;19.35;73.80;101163.78;2285571;76;51314;-76
2022/10/30 09:11:52;;;;;;;;;;;;;;;19.34;73.72;101165.64;2253686;77;50324;-77
2022/10/30 09:14:53;;;;;;;;;;;;;;;19.35;73.71;101178.03;2260770;76;50645;-76
2022/10/30 09:17:57;;;;;;;;;;;;;;;19.36;74.10;101171.64;2263936;76;51553;-77
2022/10/30 09:20:58;;;;;;;;;;;;;;;19.36;73.82;101168.95;2297474;76;52804;-78
2022/10/30 09:24:00;;;;;;;;;;;;;;;19.38;73.85;101157.23;2283449;76;49752;-77
2022/10/30 09:27:01;;;;;;;;;;;;;;;19.38;73.85;101166.63;2299605;76;51453;-77
2022/10/30 09:30:03;;;;;;;;;;;;;;;19.36;73.94;101165.44;2299315;76;51362;-76
2022/10/30 09:33:05;;;;;;;;;;;;;;;19.35;73.78;101160.59;2299258;76;50010;-76
2022/10/30 09:36:06;;;;;;;;;;;;;;;19.36;73.75;101154.20;2307739;76;50295;-77
2022/10/30 09:39:08;;;;;;;;;;;;;;;19.34;73.84;101152.70;2259133;77;52079;-77
2022/10/30 09:42:17;;;;;;;;;;;;;;;19.38;73.87;101151.86;2259370;77;50020;-77
2022/10/30 09:45:24;;;;;;;;;;;;;;;19.43;74.08;101146.80;2259422;77;52400;-77
2022/10/30 09:48:31;;;;;;;;;;;;;;;19.47;74.07;101142.25;2293363;77;51482;-78
2022/10/30 09:51:53;;;;;;;;;;;;;;;19.48;74.19;101140.40;2319925;76;51459;-76
2022/10/30 09:54:59;;;;;;;;;;;;;;;19.49;74.08;101143.40;2292061;76;50334;-78
2022/10/30 09:58:14;;;;;;;;;;;;;;;19.54;74.23;101139.67;2254885;77;49943;-78
2022/10/30 10:01:17;;;;;;;;;;;;;;;19.62;74.18;101144.16;2288048;77;50789;-79
2022/10/30 10:04:20;;;;;;;;;;;;;;;19.63;74.10;101161.45;2288391;77;50741;-78
2022/10/30 10:07:29;;;;;;;;;;;;;;;19.64;73.93;101152.36;2288512;77;50713;-77
2022/10/30 10:10:39;;;;;;;;;;;;;;;19.59;74.12;101160.95;2255701;77;50970;-79
2022/10/30 10:13:45;;;;;;;;;;;;;;;19.60;74.04;101160.46;2298628;76;51397;-78
2022/10/30 10:16:48;;;;;;;;;;;;;;;19.58;74.25;101165.16;2314557;76;51466;-79
2022/10/30 10:19:54;;;;;;;;;;;;;;;19.55;74.29;101158.30;2327838;76;50702;-78
2022/10/30 10:22:55;;;;;;;;;;;;;;;19.54;74.36;101149.07;2319777;76;52788;-78
2022/10/30 10:25:58;;;;;;;;;;;;;;;19.53;74.45;101154.12;2327939;76;51501;-79
2022/10/30 10:29:19;;;;;;;;;;;;;;;19.56;74.48;101155.94;2293910;76;49681;-78
2022/10/30 10:32:37;;;;;;;;;;;;;;;19.61;74.65;101161.29;2327916;76;50203;-78
2022/10/30 10:35:46;;;;;;;;;;;;;;;19.59;74.65;101154.23;2305019;76;51715;-80
2022/10/30 10:38:55;;;;;;;;;;;;;;;19.61;74.77;101165.31;2319876;75;50433;-79
2022/10/30 10:42:08;;;;;;;;;;;;;;;19.61;74.67;101161.29;2321969;76;50554;-79
2022/10/30 10:45:14;;;;;;;;;;;;;;;19.59;75.05;101162.80;2334881;75;50377;-78
2022/10/30 10:48:20;;;;;;;;;;;;;;;19.57;75.25;101159.45;2293495;76;52485;-80
2022/10/30 10:51:23;;;;;;;;;;;;;;;19.63;75.11;101164.12;2318370;76;50519;-80
2022/10/30 10:54:26;;;;;;;;;;;;;;;19.65;75.04;101158.08;2318741;76;51545;-78
2022/10/30 10:57:34;;;;;;;;;;;;;;;19.65;75.13;101150.03;2294271;76;49567;-77
2022/10/30 11:00:36;;;;;;;;;;;;;;;19.66;75.03;101140.12;2294256;76;50986;-79
2022/10/30 11:03:42;;;;;;;;;;;;;;;19.68;74.88;101138.09;2318610;76;51489;-78
2022/10/30 11:06:45;;;;;;;;;;;;;;;19.68;74.82;101142.98;2335988;75;51516;-78
2022/10/30 11:09:47;;;;;;;;;;;;;;;19.67;74.85;101133.23;2322168;75;50798;-81
2022/10/30 11:12:49;;;;;;;;;;;;;;;19.69;74.73;101135.25;2296521;75;50245;-81
2022/10/30 11:16:11;;;;;;;;;;;;;;;19.67;74.66;101129.73;2325493;76;50591;-79
2022/10/30 11:19:12;;;;;;;;;;;;;;;19.66;74.62;101127.52;2320293;76;51448;-78
2022/10/30 11:22:34;;;;;;;;;;;;;;;19.69;74.56;101123.16;2321837;76;50225;-79
2022/10/30 11:25:35;;;;;;;;;;;;;;;19.70;74.45;101128.02;2320685;76;50427;-80
2022/10/30 11:28:41;;;;;;;;;;;;;;;19.68;74.40;101127.36;2309541;76;51320;-78
2022/10/30 11:31:43;;;;;;;;;;;;;;;19.67;74.51;101131.90;2321946;76;50001;-79
2022/10/30 11:34:44;;;;;;;;;;;;;;;19.65;74.62;101131.23;2321138;76;50914;-79
2022/10/30 11:37:47;;;;;;;;;;;;;;;19.69;74.39;101129.88;2272073;76;49649;-78
2022/10/30 11:40:49;;;;;;;;;;;;;;;19.71;74.32;101135.08;2327878;76;51315;-78
2022/10/30 11:43:50;;;;;;;;;;;;;;;19.71;74.24;101138.59;2280729;76;50397;-79
2022/10/30 11:46:52;;;;;;;;;;;;;;;19.71;74.17;101143.97;2267252;76;50128;-79
2022/10/30 11:49:55;;;;;;;;;;;;;;;19.68;74.31;101136.75;2231300;78;50060;-79
2022/10/30 11:52:57;;;;;;;;;;;;;;;19.70;74.28;101142.27;2281858;77;51458;-79
2022/10/30 11:55:59;;;;;;;;;;;;;;;19.67;74.45;101130.55;2315641;76;50408;-78
2022/10/30 11:59:01;;;;;;;;;;;;;;;19.67;74.47;101135.09;2327824;76;50614;-80
2022/10/30 12:02:03;;;;;;;;;;;;;;;19.66;74.47;101136.09;2294018;76;50992;-80
2022/10/30 12:05:23;;;;;;;;;;;;;;;19.65;74.52;101123.66;2293929;76;50594;-79
2022/10/30 12:08:25;;;;;;;;;;;;;;;19.65;74.47;101129.89;2327337;76;50634;-80
2022/10/30 12:11:30;;;;;;;;;;;;;;;19.66;74.49;101133.41;2294164;76;50582;-80
2022/10/30 12:14:33;;;;;;;;;;;;;;;19.65;74.42;101128.55;2283079;76;49788;-80
2022/10/30 12:17:34;;;;;;;;;;;;;;;19.67;74.35;101125.70;2307869;76;50774;-79
2022/10/30 12:20:36;;;;;;;;;;;;;;;19.65;74.42;101115.13;2297897;77;51513;-78
2022/10/30 12:23:38;;;;;;;;;;;;;;;19.67;74.34;101119.82;2297546;77;51437;-78
2022/10/30 12:26:39;;;;;;;;;;;;;;;19.67;74.34;101129.73;2276059;77;50036;-78
2022/10/30 12:30:01;;;;;;;;;;;;;;;19.66;74.35;101139.61;2298183;77;52193;-77
2022/10/30 12:33:07;;;;;;;;;;;;;;;19.68;74.33;101142.98;2297959;77;50829;-79
2022/10/30 12:36:16;;;;;;;;;;;;;;;19.69;74.30;101133.91;2297941;77;51389;-78
2022/10/30 12:39:25;;;;;;;;;;;;;;;19.67;74.27;101137.27;2276208;77;50033;-77
2022/10/30 12:42:27;;;;;;;;;;;;;;;19.66;74.30;101132.89;2298016;76;50724;-77
2022/10/30 12:45:31;;;;;;;;;;;;;;;19.67;74.23;101125.70;2307016;76;50728;-78
2022/10/30 12:48:35;;;;;;;;;;;;;;;19.65;74.25;101126.34;2293898;76;51587;-78
2022/10/30 12:51:55;;;;;;;;;;;;;;;19.65;74.17;101129.89;2298235;76;21918;-78
2022/10/30 12:55:03;;;;;;;;;;;;;;;19.64;74.13;101120.15;2297728;77;50353;-77
2022/10/30 12:58:09;;;;;;;;;;;;;;;19.67;73.98;101118.48;2297856;76;50352;-79
2022/10/30 13:01:29;;;;;;;;;;;;;;;19.64;73.70;101128.20;2297972;77;50719;-79
2022/10/30 13:04:35;;;;;;;;;;;;;;;19.59;73.82;101122.02;2277663;77;50081;-77
2022/10/30 13:07:38;;;;;;;;;;;;;;;19.57;73.77;101119.19;2313207;76;50352;-79
2022/10/30 13:10:42;;;;;;;;;;;;;;;19.57;73.70;101124.55;2306897;76;50386;-77
2022/10/30 13:13:45;;;;;;;;;;;;;;;19.59;73.99;101119.84;2298422;76;50359;-77
2022/10/30 13:16:46;;;;;;;;;;;;;;;19.57;73.33;101114.67;2277214;77;50160;-78
2022/10/30 13:19:49;;;;;;;;;;;;;;;19.54;73.71;101112.33;2298797;76;51463;-78
2022/10/30 13:22:53;;;;;;;;;;;;;;;19.54;73.73;101119.03;2298661;77;51485;-79
2022/10/30 13:25:56;;;;;;;;;;;;;;;19.57;73.76;101115.16;2293255;75;51609;-78
2022/10/30 13:28:59;;;;;;;;;;;;;;;19.55;73.80;101111.33;2258446;77;51137;-78
2022/10/30 13:32:02;;;;;;;;;;;;;;;19.54;73.75;101108.30;2290417;77;50375;-77
2022/10/30 13:35:15;;;;;;;;;;;;;;;19.54;73.74;101104.27;2309030;76;50414;-79
2022/10/30 13:38:34;;;;;;;;;;;;;;;19.56;73.72;101114.84;2298217;76;50738;-79
2022/10/30 13:41:37;;;;;;;;;;;;;;;19.53;73.71;101117.89;2274000;77;51707;-77
2022/10/30 13:44:46;;;;;;;;;;;;;;;19.51;73.74;101110.00;2294899;77;51457;-79
2022/10/30 13:47:50;;;;;;;;;;;;;;;19.51;73.71;101109.17;2295490;77;50600;-78
2022/10/30 13:51:10;;;;;;;;;;;;;;;19.52;73.74;101114.86;2298255;76;51398;-78
2022/10/30 13:54:22;;;;;;;;;;;;;;;19.50;73.75;101110.20;2273915;76;51164;-78
2022/10/30 13:57:25;;;;;;;;;;;;;;;19.49;73.75;101111.19;2295437;77;50315;-79
2022/10/30 14:00:31;;;;;;;;;;;;;;;19.49;73.77;101109.34;2295576;76;50389;-78
2022/10/30 14:03:34;;;;;;;;;;;;;;;19.49;73.76;101114.70;2243814;76;51806;-78
2022/10/30 14:06:40;;;;;;;;;;;;;;;19.48;73.78;101107.68;2267370;77;50257;-77
2022/10/30 14:09:44;;;;;;;;;;;;;;;19.48;73.81;101112.22;2293855;76;50390;-77
2022/10/30 14:12:47;;;;;;;;;;;;;;;19.49;73.78;101115.22;2294331;77;50054;-77
2022/10/30 14:15:49;;;;;;;;;;;;;;;19.50;73.76;101111.03;2319555;76;50403;-77
2022/10/30 14:19:00;;;;;;;;;;;;;;;19.50;73.80;101114.22;2335210;76;50316;-77
2022/10/30 14:22:02;;;;;;;;;;;;;;;19.49;73.85;101113.88;2298258;76;49994;-78
2022/10/30 14:25:03;;;;;;;;;;;;;;;19.49;73.87;101116.56;2297597;76;50493;-79
2022/10/30 14:28:05;;;;;;;;;;;;;;;19.48;73.91;101121.09;2297967;76;50473;-77
2022/10/30 14:31:07;;;;;;;;;;;;;;;19.48;73.87;101120.27;2298061;76;50017;-78
2022/10/30 14:34:10;;;;;;;;;;;;;;;19.49;73.94;101120.59;2331907;76;50250;-78
2022/10/30 14:37:12;;;;;;;;;;;;;;;19.51;73.93;101119.91;2326693;76;50772;-77
2022/10/30 14:40:33;;;;;;;;;;;;;;;19.50;73.88;101119.08;2323124;76;51547;-79
2022/10/30 14:43:36;;;;;;;;;;;;;;;19.50;73.90;101120.94;2292976;76;50944;-79
2022/10/30 14:46:39;;;;;;;;;;;;;;;19.48;73.86;101121.09;2324415;76;50735;-78
2022/10/30 14:49:43;;;;;;;;;;;;;;;19.50;73.95;101122.27;2313747;76;50774;-77
2022/10/30 14:52:46;;;;;;;;;;;;;;;19.48;73.97;101125.13;2322159;76;51542;-79
2022/10/30 14:55:50;;;;;;;;;;;;;;;19.49;74.11;101122.76;2287774;76;49862;-78
2022/10/30 14:58:56;;;;;;;;;;;;;;;19.49;74.06;101121.92;2322073;76;50437;-77
2022/10/30 15:02:05;;;;;;;;;;;;;;;19.48;74.00;101113.05;2305861;76;50929;-78
2022/10/30 15:05:14;;;;;;;;;;;;;;;19.50;74.17;101123.62;2322168;76;51474;-77
2022/10/30 15:08:33;;;;;;;;;;;;;;;19.49;74.26;101129.98;2287600;76;49561;-77
2022/10/30 15:11:36;;;;;;;;;;;;;;;19.49;74.14;101129.47;2322238;76;50002;-77
2022/10/30 15:14:41;;;;;;;;;;;;;;;19.49;74.22;101117.39;2312907;76;50392;-78
2022/10/30 15:17:43;;;;;;;;;;;;;;;19.50;74.35;101122.27;2337077;76;51640;-78
2022/10/30 15:20:46;;;;;;;;;;;;;;;19.51;74.29;101118.56;2306745;76;50069;-78
2022/10/30 15:23:48;;;;;;;;;;;;;;;19.50;74.20;101120.94;2337692;76;50632;-77
2022/10/30 15:26:50;;;;;;;;;;;;;;;19.50;74.12;101115.56;2338668;76;50723;-78
2022/10/30 15:29:55;;;;;;;;;;;;;;;19.49;74.35;101119.24;2338550;75;49829;-78
2022/10/30 15:32:57;;;;;;;;;;;;;;;19.49;74.09;101120.08;2306679;76;50939;-78
2022/10/30 15:35:58;;;;;;;;;;;;;;;19.50;74.39;101120.94;2305281;76;50193;-80
2022/10/30 15:39:05;;;;;;;;;;;;;;;19.47;74.33;101119.92;2300247;76;51529;-78
2022/10/30 15:42:06;;;;;;;;;;;;;;;19.47;74.02;101123.47;2318875;76;50410;-78
2022/10/30 15:45:09;;;;;;;;;;;;;;;19.48;74.27;101122.95;2283696;76;50522;-79
2022/10/30 15:48:19;;;;;;;;;;;;;;;19.47;74.10;101127.49;2322283;76;50754;-78
2022/10/30 15:51:21;;;;;;;;;;;;;;;19.48;74.15;101129.66;2322069;75;50750;-78
2022/10/30 15:54:23;;;;;;;;;;;;;;;19.48;74.38;101120.27;2321970;76;50358;-79
2022/10/30 15:57:29;;;;;;;;;;;;;;;19.47;74.24;101119.44;2336379;76;50982;-79
2022/10/30 16:00:31;;;;;;;;;;;;;;;19.47;74.15;101127.49;2322716;76;50309;-79
2022/10/30 16:03:33;;;;;;;;;;;;;;;19.48;74.26;101126.98;2322682;76;51503;-78
2022/10/30 16:06:34;;;;;;;;;;;;;;;19.47;74.38;101127.97;2336569;76;50314;-78
2022/10/30 16:09:36;;;;;;;;;;;;;;;19.46;74.14;101130.34;2310477;76;51098;-78
2022/10/30 16:12:37;;;;;;;;;;;;;;;19.46;74.33;101127.66;2336696;75;51589;-78
2022/10/30 16:15:39;;;;;;;;;;;;;;;19.47;73.95;101125.29;2322507;76;51473;-78
2022/10/30 16:18:40;;;;;;;;;;;;;;;19.45;73.92;101120.63;2318541;76;51461;-78
2022/10/30 16:21:44;;;;;;;;;;;;;;;19.44;73.99;101118.94;2294247;76;51251;-77
2022/10/30 16:24:45;;;;;;;;;;;;;;;19.43;74.02;101123.48;2319700;75;50261;-76
2022/10/30 16:27:47;;;;;;;;;;;;;;;19.45;74.41;101114.75;2326321;76;50409;-76
2022/10/30 16:30:48;;;;;;;;;;;;;;;19.47;74.13;101119.92;2326462;76;50370;-77
2022/10/30 16:33:50;;;;;;;;;;;;;;;19.46;74.44;101115.06;2299549;76;49491;-78
2022/10/30 16:36:52;;;;;;;;;;;;;;;19.46;74.92;101114.23;2326677;76;50434;-78
2022/10/30 16:39:53;;;;;;;;;;;;;;;19.49;75.04;101120.59;2324264;76;50358;-78
2022/10/30 16:43:01;;;;;;;;;;;;;;;19.49;76.25;101117.90;2320668;76;50101;-78
2022/10/30 16:46:16;;;;;;;;;;;;;;;19.50;76.05;101123.11;2320007;76;22414;-78
2022/10/30 16:49:18;;;;;;;;;;;;;;;19.51;76.17;101122.08;2286102;78;50333;-78
2022/10/30 16:52:22;;;;;;;;;;;;;;;19.49;76.27;101126.78;2285804;78;50852;-78
2022/10/30 16:55:24;;;;;;;;;;;;;;;19.50;76.06;101124.45;2285670;78;50468;-78
2022/10/30 16:58:27;;;;;;;;;;;;;;;19.50;76.25;101124.95;2270407;76;50975;-78
2022/10/30 17:01:28;;;;;;;;;;;;;;;19.49;76.08;101126.78;2328565;76;51451;-78
2022/10/30 17:04:31;;;;;;;;;;;;;;;19.49;76.08;101128.64;2329713;75;50823;-78
2022/10/30 17:07:32;;;;;;;;;;;;;;;19.49;75.87;101138.03;2328859;76;50728;-78
2022/10/30 17:10:35;;;;;;;;;;;;;;;19.48;75.89;101132.34;2260681;77;50967;-78
2022/10/30 17:13:53;;;;;;;;;;;;;;;19.48;75.84;101129.66;2298281;75;50246;-77
2022/10/30 17:16:55;;;;;;;;;;;;;;;19.48;75.77;101137.20;2320410;76;51459;-78
2022/10/30 17:19:58;;;;;;;;;;;;;;;19.49;75.62;101143.40;2325436;75;50517;-77
2022/10/30 17:23:18;;;;;;;;;;;;;;;19.48;75.66;101145.77;2306250;76;49584;-78
2022/10/30 17:26:19;;;;;;;;;;;;;;;19.48;75.53;101149.28;2296059;75;50742;-79
2022/10/30 17:29:23;;;;;;;;;;;;;;;19.48;75.46;101147.94;2268015;77;50415;-78
2022/10/30 17:32:25;;;;;;;;;;;;;;;19.47;75.44;101152.13;2293370;75;51462;-78
2022/10/30 17:35:27;;;;;;;;;;;;;;;19.55;75.28;101156.13;2331407;75;50073;-78
2022/10/30 17:38:28;;;;;;;;;;;;;;;19.59;75.75;101164.14;2262168;75;51428;-77
2022/10/30 17:41:30;;;;;;;;;;;;;;;19.63;75.55;101162.78;2306671;76;51547;-76
2022/10/30 17:44:32;;;;;;;;;;;;;;;19.64;75.68;101159.08;2333124;76;51527;-76
2022/10/30 17:47:34;;;;;;;;;;;;;;;19.66;75.61;101166.45;2333357;76;50738;-79
2022/10/30 17:50:36;;;;;;;;;;;;;;;19.66;75.65;101154.88;2299073;76;50161;-78
2022/10/30 17:53:37;;;;;;;;;;;;;;;19.65;75.85;101157.22;2332950;76;50687;-76
2022/10/30 17:56:39;;;;;;;;;;;;;;;19.69;75.53;101159.92;2299023;76;51510;-76
2022/10/30 17:59:40;;;;;;;;;;;;;;;19.67;75.67;101156.58;2299049;76;50024;-76
2022/10/30 18:02:42;;;;;;;;;;;;;;;19.69;75.76;101154.05;2299108;76;50340;-76
2022/10/30 18:05:44;;;;;;;;;;;;;;;19.72;75.54;101159.05;2344158;75;50362;-77
2022/10/30 18:08:45;;;;;;;;;;;;;;;19.71;75.70;101154.70;2312006;76;51867;-76
2022/10/30 18:11:47;;;;;;;;;;;;;;;19.73;75.68;101158.53;2312651;75;51193;-77
2022/10/30 18:14:49;;;;;;;;;;;;;;;19.77;75.53;101159.86;2338272;75;50343;-77
2022/10/30 18:17:50;;;;;;;;;;;;;;;19.74;75.45;101157.03;2338689;75;50663;-77
2022/10/30 18:20:52;;;;;;;;;;;;;;;19.75;75.44;101163.23;2373983;75;51410;-77
2022/10/30 18:23:53;;;;;;;;;;;;;;;19.74;75.55;101159.71;2370001;75;51475;-76
2022/10/30 18:26:55;;;;;;;;;;;;;;;19.74;75.53;101157.55;2299155;76;50578;-77
2022/10/30 18:29:57;;;;;;;;;;;;;;;19.84;75.45;101161.34;2299266;76;51403;-75
2022/10/30 18:32:58;;;;;;;;;;;;;;;19.84;75.25;101162.17;2333133;76;50334;-75
2022/10/30 18:36:00;;;;;;;;;;;;;;;19.76;75.67;101159.03;2286670;75;52395;-76
2022/10/30 18:39:01;;;;;;;;;;;;;;;19.74;75.63;101162.40;2338631;75;50298;-76
2022/10/30 18:42:03;;;;;;;;;;;;;;;19.76;75.87;101164.41;2323353;76;50554;-78
2022/10/30 18:45:21;;;;;;;;;;;;;;;19.76;75.87;101161.72;2321416;76;50323;-75
2022/10/30 18:48:23;;;;;;;;;;;;;;;19.76;75.96;101165.75;2321413;76;51569;-77
2022/10/30 18:51:26;;;;;;;;;;;;;;;19.77;75.92;101159.86;2308537;76;51849;-77
2022/10/30 18:54:27;;;;;;;;;;;;;;;19.78;75.95;101166.41;2319903;76;51667;-77
2022/10/30 18:57:29;;;;;;;;;;;;;;;19.78;76.02;101170.44;2327386;75;51465;-76
2022/10/30 19:00:30;;;;;;;;;;;;;;;19.79;76.01;101160.02;2358792;75;51461;-76
2022/10/30 19:03:32;;;;;;;;;;;;;;;19.80;75.97;101161.67;2331455;75;49496;-76
2022/10/30 19:06:33;;;;;;;;;;;;;;;19.81;75.99;101162.53;2338752;75;50225;-77
2022/10/30 19:09:35;;;;;;;;;;;;;;;19.82;75.93;101157.48;2311486;75;51516;-76
2022/10/30 19:12:37;;;;;;;;;;;;;;;19.83;75.89;101163.67;2293803;76;51229;-77
2022/10/30 19:15:39;;;;;;;;;;;;;;;19.84;75.59;101159.48;2279761;75;51764;-75
2022/10/30 19:18:42;;;;;;;;;;;;;;;19.86;75.49;101155.26;2357354;75;50385;-75
2022/10/30 19:21:44;;;;;;;;;;;;;;;19.86;75.74;101149.89;2337807;75;50372;-76
2022/10/30 19:24:45;;;;;;;;;;;;;;;19.88;75.65;101146.52;2300057;76;50691;-77
2022/10/30 19:27:47;;;;;;;;;;;;;;;19.90;75.56;101151.21;2285538;77;50945;-76
2022/10/30 19:30:53;;;;;;;;;;;;;;;19.90;75.47;101152.05;2295611;75;50671;-76
2022/10/30 19:33:55;;;;;;;;;;;;;;;19.92;75.50;101153.22;2357851;75;50025;-77
2022/10/30 19:36:56;;;;;;;;;;;;;;;19.92;75.41;101147.84;2352625;75;50704;-76
2022/10/30 19:39:59;;;;;;;;;;;;;;;19.94;75.34;101146.66;2357931;75;51398;-76
2022/10/30 19:43:00;;;;;;;;;;;;;;;19.94;75.30;101156.56;2347140;75;49453;-75
2022/10/30 19:46:02;;;;;;;;;;;;;;;19.94;75.27;101154.70;2337514;75;50294;-76
2022/10/30 19:49:08;;;;;;;;;;;;;;;19.95;75.27;101146.14;2337449;75;50737;-77
2022/10/30 19:52:09;;;;;;;;;;;;;;;19.96;75.30;101144.63;2314717;74;50934;-75
2022/10/30 19:55:11;;;;;;;;;;;;;;;19.96;75.29;101146.45;2299172;76;51392;-74
2022/10/30 19:58:13;;;;;;;;;;;;;;;19.95;75.26;101138.08;2333514;76;50694;-75
2022/10/30 20:01:15;;;;;;;;;;;;;;;19.95;75.21;101140.25;2333523;76;51526;-78
2022/10/30 20:04:17;;;;;;;;;;;;;;;19.96;75.04;101147.80;2299083;76;51006;-78
2022/10/30 20:07:18;;;;;;;;;;;;;;;19.94;75.07;101142.63;2299132;76;51569;-77
2022/10/30 20:10:20;;;;;;;;;;;;;;;19.91;75.00;101148.36;2299322;76;50594;-77
2022/10/30 20:13:22;;;;;;;;;;;;;;;19.92;75.00;101146.50;2354676;75;50677;-78
2022/10/30 20:16:23;;;;;;;;;;;;;;;19.92;75.07;101145.16;2322342;76;50986;-78
2022/10/30 20:19:28;;;;;;;;;;;;;;;19.92;75.02;101151.87;2333384;76;50359;-78
2022/10/30 20:22:30;;;;;;;;;;;;;;;19.91;75.05;101158.24;2342240;75;50244;-77
2022/10/30 20:25:32;;;;;;;;;;;;;;;19.90;75.04;101162.78;2338623;75;52132;-77
2022/10/30 20:28:37;;;;;;;;;;;;;;;19.91;75.00;101160.93;2273887;76;49500;-77
2022/10/30 20:31:38;;;;;;;;;;;;;;;19.91;74.97;101158.24;2333572;76;50574;-78
2022/10/30 20:34:40;;;;;;;;;;;;;;;19.89;74.90;101155.75;2318542;75;53675;-78
2022/10/30 20:37:42;;;;;;;;;;;;;;;19.90;74.87;101162.78;2356035;75;51359;-77
2022/10/30 20:40:44;;;;;;;;;;;;;;;19.89;74.87;101165.67;2354547;75;51816;-79
2022/10/30 20:43:45;;;;;;;;;;;;;;;19.90;74.93;101165.98;2353333;75;50492;-78
2022/10/30 20:46:47;;;;;;;;;;;;;;;19.88;74.84;101172.03;2358519;75;50306;-78
2022/10/30 20:49:48;;;;;;;;;;;;;;;19.87;74.87;101171.20;2356165;75;50741;-79
2022/10/30 20:52:52;;;;;;;;;;;;;;;19.87;74.93;101173.06;2295106;75;50041;-78
2022/10/30 20:55:53;;;;;;;;;;;;;;;19.87;74.91;101178.44;2300714;76;51694;-77
2022/10/30 20:58:55;;;;;;;;;;;;;;;19.84;74.88;101178.28;2298675;76;50587;-79
2022/10/30 21:01:57;;;;;;;;;;;;;;;19.84;74.90;101177.45;2326695;76;51496;-78
2022/10/30 21:04:59;;;;;;;;;;;;;;;19.82;74.82;101178.96;2299628;76;49868;-77
2022/10/30 21:08:01;;;;;;;;;;;;;;;19.83;74.86;101181.13;2326525;76;50336;-77
2022/10/30 21:11:03;;;;;;;;;;;;;;;19.82;74.82;101170.91;2326852;76;50413;-78
2022/10/30 21:14:04;;;;;;;;;;;;;;;19.82;74.78;101171.42;2326495;76;51515;-78
2022/10/30 21:17:06;;;;;;;;;;;;;;;19.82;74.76;101171.42;2299407;76;50970;-78